createdAt,value
2022-12-11T00:00:27.439Z,30.55
2022-12-11T00:02:54.379Z,30.92
2022-12-11T00:05:21.217Z,31.15
2022-12-11T00:07:48.080Z,30.77
2022-12-11T00:10:14.929Z,30.25
2022-12-11T00:12:42.766Z,30.63
2022-12-11T00:15:10.596Z,32.75
2022-12-11T00:17:38.504Z,30.98
2022-12-11T00:20:06.145Z,30.20
2022-12-11T00:22:32.971Z,33.80
2022-12-11T00:24:59.782Z,31.13
2022-12-11T00:27:26.595Z,31.15
2022-12-11T00:29:53.406Z,31.60
2022-12-11T00:32:20.227Z,32.42
2022-12-11T00:34:47.018Z,30.20
2022-12-11T00:37:13.947Z,30.95
2022-12-11T00:39:40.818Z,32.38
2022-12-11T00:42:08.670Z,33.53
2022-12-11T00:44:36.007Z,33.50
2022-12-11T00:47:03.967Z,31.90
2022-12-11T00:49:30.934Z,32.85
2022-12-11T00:51:57.833Z,32.13
2022-12-11T00:54:24.625Z,32.67
2022-12-11T00:56:51.520Z,34.28
2022-12-11T00:59:18.362Z,32.90
2022-12-11T01:01:45.217Z,32.67
2022-12-11T01:04:12.026Z,34.35
2022-12-11T01:06:39.790Z,32.58
2022-12-11T01:09:24.897Z,32.97
2022-12-11T01:11:52.553Z,37.00
2022-12-11T01:14:19.823Z,34.08
2022-12-11T01:16:46.731Z,35.35
2022-12-11T01:19:13.682Z,35.55
2022-12-11T01:21:41.157Z,36.78
2022-12-11T01:24:08.073Z,33.58
2022-12-11T01:26:34.929Z,36.03
2022-12-11T01:29:02.117Z,35.03
2022-12-11T01:31:30.069Z,36.55
2022-12-11T01:33:56.951Z,34.17
2022-12-11T01:36:24.413Z,36.13
2022-12-11T01:38:53.474Z,33.40
2022-12-11T01:41:21.586Z,36.17
2022-12-11T01:44:06.471Z,33.30
2022-12-11T01:46:36.398Z,34.95
2022-12-11T01:49:09.202Z,34.00
2022-12-11T01:51:48.330Z,33.85
2022-12-11T01:54:18.900Z,33.90
2022-12-11T01:56:49.942Z,33.83
2022-12-11T01:59:24.048Z,33.13
2022-12-11T02:02:17.168Z,32.88
2022-12-11T02:04:46.198Z,31.90
2022-12-11T02:07:12.974Z,30.83
2022-12-11T02:09:43.786Z,31.25
2022-12-11T02:12:39.080Z,31.33
2022-12-11T02:15:51.477Z,32.10
2022-12-11T02:19:02.700Z,32.13
2022-12-11T02:21:41.079Z,31.00
2022-12-11T02:24:35.407Z,29.95
2022-12-11T02:27:35.822Z,29.75
2022-12-11T02:30:10.743Z,31.33
2022-12-11T02:32:49.339Z,31.15
2022-12-11T02:35:45.785Z,30.40
2022-12-11T02:38:27.190Z,29.92
2022-12-11T02:40:57.461Z,28.45
2022-12-11T02:43:25.477Z,29.27
2022-12-11T02:45:54.170Z,29.67
2022-12-11T02:48:24.734Z,28.95
2022-12-11T02:50:58.646Z,29.55
2022-12-11T02:53:30.805Z,29.35
2022-12-11T02:56:13.115Z,30.50
2022-12-11T02:58:58.692Z,28.98
2022-12-11T03:01:27.236Z,29.70
2022-12-11T03:03:56.081Z,29.63
2022-12-11T03:06:31.800Z,28.02
2022-12-11T03:08:58.842Z,25.40
2022-12-11T03:11:25.654Z,26.20
2022-12-11T03:13:53.998Z,23.77
2022-12-11T03:16:36.693Z,23.58
2022-12-11T03:19:35.870Z,24.88
2022-12-11T03:22:16.793Z,24.75
2022-12-11T03:24:53.005Z,24.13
2022-12-11T03:27:30.846Z,24.10
2022-12-11T03:30:05.199Z,23.63
2022-12-11T03:32:47.315Z,23.85
2022-12-11T03:35:27.975Z,21.70
2022-12-11T03:37:57.892Z,20.30
2022-12-11T03:40:27.799Z,22.15
2022-12-11T03:42:57.315Z,21.05
2022-12-11T03:45:27.907Z,20.70
2022-12-11T03:47:59.479Z,21.10
2022-12-11T03:50:31.758Z,21.10
2022-12-11T03:53:01.556Z,20.73
2022-12-11T03:55:32.332Z,19.77
2022-12-11T03:57:59.325Z,20.08
2022-12-11T04:00:26.310Z,19.83
2022-12-11T04:03:13.908Z,18.67
2022-12-11T04:05:50.700Z,19.45
2022-12-11T04:08:20.899Z,18.92
2022-12-11T04:10:48.998Z,18.90
2022-12-11T04:13:15.782Z,18.85
2022-12-11T04:15:42.715Z,20.33
2022-12-11T04:18:28.835Z,21.13
2022-12-11T04:21:15.423Z,21.58
2022-12-11T04:24:00.787Z,21.10
2022-12-11T04:26:27.939Z,21.20
2022-12-11T04:28:55.073Z,22.92
2022-12-11T04:31:23.229Z,23.63
2022-12-11T04:33:50.155Z,24.33
2022-12-11T04:36:17.545Z,24.52
2022-12-11T04:38:44.386Z,23.95
2022-12-11T04:41:14.862Z,24.73
2022-12-11T04:43:45.113Z,24.58
2022-12-11T04:46:15.976Z,24.75
2022-12-11T04:48:43.506Z,23.65
2022-12-11T04:51:10.782Z,24.30
2022-12-11T04:53:38.276Z,23.63
2022-12-11T04:56:10.766Z,25.30
2022-12-11T04:58:38.925Z,26.05
2022-12-11T05:01:19.345Z,24.08
2022-12-11T05:03:47.376Z,23.73
2022-12-11T05:06:15.479Z,23.58
2022-12-11T05:08:43.867Z,23.38
2022-12-11T05:11:14.851Z,24.02
2022-12-11T05:13:42.658Z,24.20
2022-12-11T05:16:14.336Z,23.80
2022-12-11T05:18:41.635Z,23.75
2022-12-11T05:21:12.045Z,22.83
2022-12-11T05:23:39.133Z,22.27
2022-12-11T05:26:13.943Z,22.73
2022-12-11T05:28:41.427Z,23.13
2022-12-11T05:31:17.813Z,22.77
2022-12-11T05:33:46.575Z,22.27
2022-12-11T05:36:24.806Z,22.33
2022-12-11T05:38:52.850Z,23.02
2022-12-11T05:41:23.861Z,22.75
2022-12-11T05:43:51.566Z,21.42
2022-12-11T05:46:28.394Z,22.70
2022-12-11T05:49:01.810Z,21.17
2022-12-11T05:51:31.093Z,21.95
2022-12-11T05:53:59.120Z,22.67
2022-12-11T05:56:33.387Z,22.20
2022-12-11T05:59:02.714Z,21.33
2022-12-11T06:01:38.986Z,22.48
2022-12-11T06:04:08.587Z,23.08
2022-12-11T06:06:36.157Z,21.65
2022-12-11T06:09:05.052Z,22.35
2022-12-11T06:11:33.719Z,22.75
2022-12-11T06:14:03.163Z,22.33
2022-12-11T06:16:30.740Z,21.80
2022-12-11T06:18:58.592Z,22.35
2022-12-11T06:21:32.479Z,20.33
2022-12-11T06:24:02.972Z,20.73
2022-12-11T06:26:32.028Z,23.73
2022-12-11T06:28:59.834Z,23.83
2022-12-11T06:31:27.252Z,22.50
2022-12-11T06:33:54.631Z,23.33
2022-12-11T06:36:24.229Z,21.77
2022-12-11T06:38:52.253Z,22.77
2022-12-11T06:41:19.471Z,22.95
2022-12-11T06:43:46.575Z,23.67
2022-12-11T06:46:19.993Z,22.92
2022-12-11T06:48:50.462Z,21.90
2022-12-11T06:51:21.548Z,24.63
2022-12-11T06:53:56.873Z,23.88
2022-12-11T06:56:24.798Z,24.58
2022-12-11T06:58:52.219Z,23.50
2022-12-11T07:01:25.589Z,23.77
2022-12-11T07:03:58.228Z,24.42
2022-12-11T07:06:28.274Z,23.17
2022-12-11T07:08:55.194Z,25.10
2022-12-11T07:11:22.755Z,23.75
2022-12-11T07:13:50.199Z,25.13
2022-12-11T07:16:18.658Z,25.38
2022-12-11T07:18:50.992Z,25.00
2022-12-11T07:21:19.578Z,23.95
2022-12-11T07:23:47.826Z,24.50
2022-12-11T07:26:20.005Z,25.08
2022-12-11T07:28:47.243Z,24.45
2022-12-11T07:31:22.992Z,24.90
2022-12-11T07:34:00.236Z,22.92
2022-12-11T07:36:30.138Z,22.15
2022-12-11T07:38:57.404Z,23.45
2022-12-11T07:41:24.767Z,22.98
2022-12-11T07:43:56.282Z,22.23
2022-12-11T07:46:26.980Z,22.92
2022-12-11T07:48:54.442Z,23.05
2022-12-11T07:51:29.198Z,21.10
2022-12-11T07:54:09.043Z,22.77
2022-12-11T07:56:35.876Z,22.70
2022-12-11T07:59:05.610Z,21.20
2022-12-11T08:01:36.361Z,22.77
2022-12-11T08:04:07.384Z,23.85
2022-12-11T08:06:37.987Z,23.23
2022-12-11T08:09:09.445Z,24.67
2022-12-11T08:11:36.495Z,23.58
2022-12-11T08:14:03.471Z,24.13
2022-12-11T08:16:30.353Z,24.58
2022-12-11T08:18:59.719Z,25.67
2022-12-11T08:21:28.371Z,24.90
2022-12-11T08:23:55.822Z,25.73
2022-12-11T08:26:29.789Z,27.15
2022-12-11T08:28:57.116Z,26.50
2022-12-11T08:31:25.411Z,25.35
2022-12-11T08:33:52.836Z,25.67
2022-12-11T08:36:22.850Z,24.65
2022-12-11T08:38:50.940Z,23.30
2022-12-11T08:41:28.142Z,24.02
2022-12-11T08:43:58.720Z,23.63
2022-12-11T08:46:30.725Z,24.80
2022-12-11T08:48:58.862Z,23.10
2022-12-11T08:51:28.755Z,23.10
2022-12-11T08:53:58.399Z,23.15
2022-12-11T08:56:26.830Z,22.58
2022-12-11T08:58:54.204Z,23.70
2022-12-11T09:01:27.638Z,23.20
2022-12-11T09:03:56.697Z,23.20
2022-12-11T09:06:26.923Z,23.50
2022-12-11T09:08:54.636Z,24.17
2022-12-11T09:11:26.096Z,23.40
2022-12-11T09:13:53.843Z,23.35
2022-12-11T09:16:23.798Z,24.50
2022-12-11T09:18:53.491Z,24.40
2022-12-11T09:21:24.566Z,24.10
2022-12-11T09:23:58.031Z,24.48
2022-12-11T09:26:27.053Z,24.30
2022-12-11T09:28:54.874Z,24.33
2022-12-11T09:31:32.411Z,24.52
2022-12-11T09:34:07.151Z,24.77
2022-12-11T09:36:34.992Z,23.70
2022-12-11T09:39:06.088Z,24.23
2022-12-11T09:42:02.579Z,24.13
2022-12-11T09:44:34.906Z,24.10
2022-12-11T09:47:01.956Z,25.15
2022-12-11T09:49:42.507Z,24.80
2022-12-11T09:52:47.623Z,24.48
2022-12-11T09:55:24.149Z,23.77
2022-12-11T09:58:54.814Z,25.95
2022-12-11T10:01:47.849Z,23.42
2022-12-11T10:04:43.066Z,23.40
2022-12-11T10:07:22.862Z,23.60
2022-12-11T10:10:02.273Z,23.50
2022-12-11T10:12:29.062Z,23.65
2022-12-11T10:15:18.691Z,23.35
2022-12-11T10:17:51.653Z,22.95
2022-12-11T10:20:34.951Z,23.35
2022-12-11T10:23:06.323Z,22.33
2022-12-11T10:25:39.873Z,23.88
2022-12-11T10:28:17.285Z,22.73
2022-12-11T10:31:14.776Z,23.45
2022-12-11T10:34:04.361Z,21.45
2022-12-11T10:36:36.449Z,22.08
2022-12-11T10:39:13.964Z,22.35
2022-12-11T10:41:45.190Z,21.45
2022-12-11T10:44:24.270Z,21.58
2022-12-11T10:47:11.306Z,20.88
2022-12-11T10:49:43.362Z,21.05
2022-12-11T10:52:44.598Z,20.30
2022-12-11T10:55:28.352Z,20.20
2022-12-11T10:58:03.634Z,20.45
2022-12-11T11:00:41.105Z,19.67
2022-12-11T11:03:29.318Z,18.30
2022-12-11T11:06:20.730Z,19.67
2022-12-11T11:08:55.225Z,18.73
2022-12-11T11:11:38.206Z,18.58
2022-12-11T11:14:05.328Z,17.63
2022-12-11T11:16:37.072Z,18.85
2022-12-11T11:19:05.248Z,18.50
2022-12-11T11:21:35.328Z,19.27
2022-12-11T11:24:03.550Z,18.70
2022-12-11T11:26:56.666Z,17.88
2022-12-11T11:29:34.239Z,19.00
2022-12-11T11:32:15.079Z,18.08
2022-12-11T11:34:42.060Z,19.27
2022-12-11T11:37:40.230Z,18.45
2022-12-11T11:40:13.062Z,18.30
2022-12-11T11:42:57.913Z,18.20
2022-12-11T11:45:40.495Z,16.95
2022-12-11T11:48:24.505Z,18.98
2022-12-11T11:50:53.790Z,18.13
2022-12-11T11:53:40.533Z,17.85
2022-12-11T11:56:36.244Z,17.90
2022-12-11T11:59:24.680Z,17.80
2022-12-11T12:01:56.938Z,18.10
2022-12-11T12:04:31.611Z,18.30
2022-12-11T12:07:10.072Z,18.92
2022-12-11T12:10:21.232Z,18.05
2022-12-11T12:13:03.960Z,19.45
2022-12-11T12:15:39.142Z,18.17
2022-12-11T12:18:25.465Z,18.90
2022-12-11T12:21:21.711Z,18.70
2022-12-11T12:24:19.321Z,18.23
2022-12-11T12:27:01.318Z,19.52
2022-12-11T12:29:58.366Z,19.50
2022-12-11T12:33:00.186Z,19.77
2022-12-11T12:35:38.452Z,19.90
2022-12-11T12:38:23.278Z,21.77
2022-12-11T12:41:23.617Z,20.60
2022-12-11T12:44:05.698Z,20.40
2022-12-11T12:46:51.850Z,22.73
2022-12-11T12:49:34.792Z,21.17
2022-12-11T12:52:05.012Z,21.42
2022-12-11T12:54:34.301Z,21.67
2022-12-11T12:57:04.268Z,22.38
2022-12-11T12:59:31.583Z,21.52
2022-12-11T13:02:04.498Z,22.77
2022-12-11T13:04:55.407Z,23.52
2022-12-11T13:07:30.303Z,22.40
2022-12-11T13:10:22.989Z,22.30
2022-12-11T13:12:50.931Z,23.60
2022-12-11T13:15:36.630Z,22.95
2022-12-11T13:18:33.928Z,23.00
2022-12-11T13:21:03.054Z,23.75
2022-12-11T13:23:34.919Z,24.92
2022-12-11T13:26:04.878Z,23.83
2022-12-11T13:28:37.613Z,24.60
2022-12-11T13:31:16.801Z,23.80
2022-12-11T13:33:52.308Z,24.02
2022-12-11T13:36:27.917Z,23.00
2022-12-11T13:39:25.171Z,22.88
2022-12-11T13:41:59.695Z,22.17
2022-12-11T13:44:32.827Z,23.33
2022-12-11T13:47:03.692Z,23.77
2022-12-11T13:49:38.018Z,21.33
2022-12-11T13:52:06.295Z,21.70
2022-12-11T13:54:38.648Z,23.52
2022-12-11T13:57:08.547Z,21.80
2022-12-11T13:59:47.038Z,23.08
2022-12-11T14:02:53.730Z,22.80
2022-12-11T14:05:21.501Z,23.52
2022-12-11T14:07:56.617Z,22.20
2022-12-11T14:10:31.455Z,23.23
2022-12-11T14:13:27.638Z,23.63
2022-12-11T14:15:55.216Z,23.50
2022-12-11T14:18:26.481Z,22.75
2022-12-11T14:21:02.027Z,23.50
2022-12-11T14:23:54.456Z,23.40
2022-12-11T14:26:34.305Z,23.77
2022-12-11T14:29:02.629Z,23.73
2022-12-11T14:31:38.186Z,22.75
2022-12-11T14:34:18.907Z,22.75
2022-12-11T14:36:48.176Z,23.27
2022-12-11T14:39:24.635Z,23.13
2022-12-11T14:42:10.491Z,22.63
2022-12-11T14:45:11.682Z,23.10
2022-12-11T14:47:43.549Z,22.95
2022-12-11T14:50:25.943Z,22.52
2022-12-11T14:53:03.134Z,22.42
2022-12-11T14:55:34.697Z,22.40
2022-12-11T14:58:22.416Z,22.35
2022-12-11T15:01:19.571Z,22.60
2022-12-11T15:03:46.776Z,23.40
2022-12-11T15:06:32.550Z,20.48
2022-12-11T15:09:36.269Z,22.50
2022-12-11T15:12:15.554Z,22.52
2022-12-11T15:14:58.074Z,21.95
2022-12-11T15:17:27.418Z,21.52
2022-12-11T15:20:07.322Z,20.83
2022-12-11T15:22:36.017Z,22.05
2022-12-11T15:25:03.722Z,21.58
2022-12-11T15:27:39.408Z,24.00
2022-12-11T15:30:26.823Z,21.33
2022-12-11T15:33:12.202Z,23.58
2022-12-11T15:35:52.164Z,22.48
2022-12-11T15:38:40.748Z,23.50
2022-12-11T15:41:16.422Z,25.92
2022-12-11T15:43:44.843Z,24.52
2022-12-11T15:46:11.842Z,23.75
2022-12-11T15:48:38.737Z,24.48
2022-12-11T15:51:06.023Z,23.88
2022-12-11T15:53:32.822Z,24.38
2022-12-11T15:56:00.264Z,22.45
2022-12-11T15:58:28.198Z,21.98
2022-12-11T16:00:55.745Z,23.15
2022-12-11T16:03:24.166Z,20.98
2022-12-11T16:05:52.926Z,19.73
2022-12-11T16:08:23.903Z,19.77
2022-12-11T16:10:54.752Z,20.30
2022-12-11T16:13:22.867Z,20.00
2022-12-11T16:15:53.601Z,20.23
2022-12-11T16:18:23.584Z,21.25
2022-12-11T16:20:52.162Z,21.15
2022-12-11T16:23:20.055Z,20.73
2022-12-11T16:25:48.099Z,24.05
2022-12-11T16:28:18.159Z,22.65
2022-12-11T16:30:45.574Z,20.45
2022-12-11T16:33:14.088Z,19.27
2022-12-11T16:35:42.860Z,18.77
2022-12-11T16:38:11.485Z,20.55
2022-12-11T16:40:38.511Z,21.25
2022-12-11T16:43:05.963Z,19.35
2022-12-11T16:45:33.849Z,21.02
2022-12-11T16:48:05.139Z,19.45
2022-12-11T16:50:32.422Z,21.38
2022-12-11T16:52:59.425Z,19.63
2022-12-11T16:55:26.418Z,20.75
2022-12-11T16:57:54.245Z,22.52
2022-12-11T17:00:21.085Z,24.38
2022-12-11T17:02:48.227Z,21.27
2022-12-11T17:05:15.401Z,21.00
2022-12-11T17:07:42.477Z,19.40
2022-12-11T17:10:09.706Z,21.35
2022-12-11T17:12:36.649Z,20.65
2022-12-11T17:15:03.899Z,19.88
2022-12-11T17:17:31.101Z,18.92
2022-12-11T17:19:58.002Z,19.58
2022-12-11T17:22:25.284Z,20.38
2022-12-11T17:24:52.242Z,19.75
2022-12-11T17:27:19.737Z,19.85
2022-12-11T17:29:49.406Z,21.00
2022-12-11T17:32:17.457Z,19.92
2022-12-11T17:34:45.930Z,19.00
2022-12-11T17:37:12.886Z,18.80
2022-12-11T17:39:39.876Z,19.08
2022-12-11T17:42:06.774Z,18.70
2022-12-11T17:44:33.618Z,19.35
2022-12-11T17:47:04.703Z,20.48
2022-12-11T17:49:34.426Z,20.15
2022-12-11T17:52:01.199Z,21.65
2022-12-11T17:54:28.088Z,22.05
2022-12-11T17:56:54.891Z,21.95
2022-12-11T17:59:21.682Z,19.13
2022-12-11T18:01:48.729Z,17.90
2022-12-11T18:04:15.645Z,18.52
2022-12-11T18:06:42.499Z,21.42
2022-12-11T18:09:10.241Z,17.63
2022-12-11T18:11:37.239Z,16.90
2022-12-11T18:14:04.071Z,19.17
2022-12-11T18:16:37.938Z,18.88
2022-12-11T18:19:08.275Z,18.92
2022-12-11T18:21:40.578Z,18.13
2022-12-11T18:24:09.075Z,19.00
2022-12-11T18:26:37.399Z,19.23
2022-12-11T18:29:05.332Z,19.77
2022-12-11T18:31:32.578Z,18.63
2022-12-11T18:34:00.106Z,17.80
2022-12-11T18:36:27.388Z,18.67
2022-12-11T18:38:54.346Z,18.80
2022-12-11T18:41:21.248Z,18.75
2022-12-11T18:43:48.313Z,18.83
2022-12-11T18:46:20.376Z,19.27
2022-12-11T18:48:48.533Z,18.75
2022-12-11T18:51:23.587Z,22.98
2022-12-11T18:53:52.065Z,21.17
2022-12-11T18:56:20.825Z,20.80
2022-12-11T18:58:51.182Z,18.42
2022-12-11T19:01:28.980Z,18.55
2022-12-11T19:04:04.556Z,19.42
2022-12-11T19:06:35.668Z,26.25
2022-12-11T19:09:05.556Z,22.88
2022-12-11T19:11:34.361Z,19.80
2022-12-11T19:14:01.463Z,19.35
2022-12-11T19:16:41.467Z,19.27
2022-12-11T19:19:20.966Z,18.30
2022-12-11T19:21:49.536Z,19.23
2022-12-11T19:24:20.776Z,19.08
2022-12-11T19:26:49.025Z,19.27
2022-12-11T19:29:27.234Z,19.60
2022-12-11T19:31:55.677Z,18.88
2022-12-11T19:34:24.760Z,18.38
2022-12-11T19:36:51.875Z,17.90
2022-12-11T19:39:19.706Z,19.13
2022-12-11T19:41:46.986Z,17.35
2022-12-11T19:44:14.080Z,17.88
2022-12-11T19:46:41.018Z,22.08
2022-12-11T19:49:08.394Z,19.75
2022-12-11T19:51:39.013Z,23.05
2022-12-11T19:54:11.385Z,22.92
2022-12-11T19:56:38.474Z,21.20
2022-12-11T19:59:08.813Z,21.95
2022-12-11T20:01:38.439Z,22.70
2022-12-11T20:04:10.430Z,21.98
2022-12-11T20:06:42.790Z,21.25
2022-12-11T20:09:11.928Z,19.92
2022-12-11T20:11:42.111Z,19.25
2022-12-11T20:14:16.516Z,19.45
2022-12-11T20:17:10.189Z,20.48
2022-12-11T20:19:31.577Z,20.48
2022-12-11T20:21:58.906Z,18.67
2022-12-11T20:24:26.105Z,20.20
2022-12-11T20:26:54.395Z,18.63
2022-12-11T20:29:21.357Z,17.88
2022-12-11T20:31:51.241Z,19.17
2022-12-11T20:34:19.877Z,18.30
2022-12-11T20:36:51.455Z,18.42
2022-12-11T20:39:18.273Z,18.83
2022-12-11T20:41:45.083Z,18.60
2022-12-11T20:44:11.874Z,18.50
2022-12-11T20:46:38.738Z,18.52
2022-12-11T20:49:12.534Z,18.00
2022-12-11T20:51:39.986Z,18.17
2022-12-11T20:54:06.970Z,18.38
2022-12-11T20:56:33.883Z,18.88
2022-12-11T20:59:01.100Z,19.85
2022-12-11T21:01:31.897Z,20.38
2022-12-11T21:03:59.956Z,20.10
2022-12-11T21:06:31.964Z,19.38
2022-12-11T21:09:01.872Z,19.02
2022-12-11T21:11:28.925Z,19.63
2022-12-11T21:13:56.094Z,20.13
2022-12-11T21:16:24.170Z,18.50
2022-12-11T21:18:51.896Z,18.42
2022-12-11T21:21:19.997Z,19.35
2022-12-11T21:23:46.822Z,20.77
2022-12-11T21:26:13.862Z,20.30
2022-12-11T21:28:41.054Z,20.08
2022-12-11T21:31:14.466Z,20.27
2022-12-11T21:33:41.634Z,18.23
2022-12-11T21:36:11.071Z,19.40
2022-12-11T21:38:39.418Z,19.45
2022-12-11T21:41:13.871Z,19.60
2022-12-11T21:44:03.198Z,19.77
2022-12-11T21:46:29.924Z,18.40
2022-12-11T21:48:56.713Z,18.85
2022-12-11T21:51:36.139Z,20.38
2022-12-11T21:54:06.614Z,19.92
2022-12-11T21:56:33.924Z,19.20
2022-12-11T21:59:01.559Z,18.27
2022-12-11T22:01:41.719Z,19.23
2022-12-11T22:04:11.284Z,19.20
2022-12-11T22:06:38.622Z,16.98
2022-12-11T22:09:05.746Z,19.02
2022-12-11T22:11:35.097Z,18.88
2022-12-11T22:14:02.786Z,18.05
2022-12-11T22:16:30.170Z,17.92
2022-12-11T22:18:57.130Z,17.60
2022-12-11T22:21:24.051Z,17.58
2022-12-11T22:23:51.476Z,17.52
2022-12-11T22:26:25.639Z,17.40
2022-12-11T22:28:52.954Z,16.92
2022-12-11T22:31:24.116Z,17.10
2022-12-11T22:33:55.878Z,16.55
2022-12-11T22:36:26.010Z,17.17
2022-12-11T22:38:53.535Z,15.60
2022-12-11T22:41:30.560Z,16.73
2022-12-11T22:43:58.905Z,16.83
2022-12-11T22:46:30.682Z,16.55
2022-12-11T22:48:58.987Z,17.45
2022-12-11T22:51:26.076Z,17.10
2022-12-11T22:53:52.929Z,16.17
2022-12-11T22:56:19.834Z,16.52
2022-12-11T22:58:46.892Z,17.67
2022-12-11T23:01:19.712Z,16.63
2022-12-11T23:03:48.205Z,17.35
2022-12-11T23:06:23.689Z,16.60
2022-12-11T23:08:52.161Z,17.02
2022-12-11T23:11:27.647Z,17.00
2022-12-11T23:13:55.187Z,16.23
2022-12-11T23:16:24.970Z,16.50
2022-12-11T23:18:52.958Z,16.65
2022-12-11T23:21:20.147Z,17.10
2022-12-11T23:23:47.523Z,16.70
2022-12-11T23:26:18.518Z,18.10
2022-12-11T23:28:46.954Z,16.70
2022-12-11T23:31:14.759Z,17.50
2022-12-11T23:33:42.264Z,16.92
2022-12-11T23:36:09.796Z,17.15
2022-12-11T23:38:37.481Z,16.45
2022-12-11T23:41:08.622Z,16.70
2022-12-11T23:43:36.774Z,16.33
2022-12-11T23:46:22.399Z,17.80
2022-12-11T23:48:50.491Z,17.88
2022-12-11T23:51:20.239Z,17.40
2022-12-11T23:53:47.722Z,17.55
2022-12-11T23:56:23.314Z,15.90
2022-12-11T23:58:51.140Z,17.52
